Time;durP1;ratioP1;P1;durP2;ratioP2;P2;SDS_P1;SDS_P2;PMS_P1;PMS_P2;Temp;Humidity;BMP_temperature;BMP_pressure;BME280_temperature;BME280_humidity;BME280_pressure;Samples;Min_cycle;Max_cycle;Signal;HPM_P1;HPM_P2
2023/03/29 00:00:20;;;;;;;404.17;118.47;;;;;;;-142.25;100.00;58004.16;5027583;28;20760;-61
2023/03/29 00:02:49;;;;;;;404.20;116.83;;;;;;;-142.25;100.00;58004.16;5027858;28;20307;-58
2023/03/29 00:05:17;;;;;;;405.80;123.40;;;;;;;-142.25;100.00;58004.16;5024858;28;20299;-60
2023/03/29 00:07:43;;;;;;;404.17;119.43;;;;;;;-142.25;100.00;58004.16;5025680;28;20321;-57
2023/03/29 00:10:11;;;;;;;402.20;117.77;;;;;;;-142.25;100.00;58004.16;5027369;28;20841;-60
2023/03/29 00:12:39;;;;;;;400.87;114.40;;;;;;;-142.25;100.00;58004.16;5028146;28;20299;-59
2023/03/29 00:15:07;;;;;;;404.07;121.07;;;;;;;-142.25;100.00;58004.16;5027800;28;20394;-60
2023/03/29 00:17:32;;;;;;;406.70;122.27;;;;;;;-142.25;100.00;58004.16;5024043;28;20670;-61
2023/03/29 00:19:58;;;;;;;402.87;114.43;;;;;;;-142.25;100.00;58004.16;5026220;28;20766;-59
2023/03/29 00:22:24;;;;;;;405.27;118.13;;;;;;;-142.25;100.00;58004.16;5027016;28;20095;-60
2023/03/29 00:24:53;;;;;;;402.47;119.77;;;;;;;-142.25;100.00;58004.16;5027521;28;20049;-60
2023/03/29 00:27:20;;;;;;;399.17;112.20;;;;;;;-142.25;100.00;58004.16;5028507;28;20315;-61
2023/03/29 00:29:46;;;;;;;399.43;113.83;;;;;;;-142.25;100.00;58004.16;5028245;28;20288;-59
2023/03/29 00:32:14;;;;;;;398.43;112.60;;;;;;;-142.25;100.00;58004.16;5028515;28;20296;-58
2023/03/29 00:34:41;;;;;;;400.40;115.53;;;;;;;-142.25;100.00;58004.16;5027418;28;20820;-60
2023/03/29 00:37:08;;;;;;;398.37;113.93;;;;;;;-142.25;100.00;58004.16;5028173;28;20399;-60
2023/03/29 00:39:35;;;;;;;402.97;115.23;;;;;;;-142.25;100.00;58004.16;5027322;28;20453;-59
2023/03/29 00:42:02;;;;;;;397.70;112.13;;;;;;;-142.25;100.00;58004.16;5027742;28;20052;-60
2023/03/29 00:44:52;;;;;;;400.60;112.37;;;;;;;-142.25;100.00;58004.16;5027317;28;20288;-60
2023/03/29 00:47:24;;;;;;;397.33;112.40;;;;;;;-142.25;100.00;58004.16;5027956;28;20324;-59
2023/03/29 00:49:51;;;;;;;398.87;110.43;;;;;;;-142.25;100.00;58004.16;5024890;28;20300;-60
2023/03/29 00:52:23;;;;;;;398.73;111.63;;;;;;;-142.25;100.00;58004.16;5028681;28;20300;-59
2023/03/29 00:54:54;;;;;;;397.40;112.50;;;;;;;-142.25;100.00;58004.16;5041625;28;20307;-60
2023/03/29 00:57:22;;;;;;;398.87;115.00;;;;;;;-142.25;100.00;58004.16;5023588;28;20381;-62
2023/03/29 00:59:50;;;;;;;396.63;112.47;;;;;;;-142.25;100.00;58004.16;5025717;28;20280;-60
2023/03/29 01:02:22;;;;;;;398.50;112.07;;;;;;;-142.25;100.00;58004.16;5029257;28;20299;-59
2023/03/29 01:04:54;;;;;;;400.20;113.53;;;;;;;-142.25;100.00;58004.16;5026654;28;20307;-60
2023/03/29 01:07:40;;;;;;;398.43;111.20;;;;;;;-142.25;100.00;58004.16;5030212;28;20363;-60
2023/03/29 01:10:35;;;;;;;398.73;114.03;;;;;;;-142.25;100.00;58004.16;5026791;28;20338;-59
2023/03/29 01:13:10;;;;;;;400.33;113.80;;;;;;;-142.25;100.00;58004.16;5016175;28;20861;-60
2023/03/29 01:15:39;;;;;;;298.42;82.70;;;;;;;-142.25;100.00;58004.16;5028569;28;20287;-60
2023/03/29 01:18:05;;;;;;;398.83;111.27;;;;;;;-142.25;100.00;58004.16;5028249;28;20335;-61
2023/03/29 01:21:01;;;;;;;399.50;112.50;;;;;;;-142.25;100.00;58004.16;5027519;28;20379;-61
2023/03/29 01:23:50;;;;;;;399.93;113.00;;;;;;;-142.25;100.00;58004.16;5020378;28;20060;-60
2023/03/29 01:26:50;;;;;;;399.73;112.13;;;;;;;-142.25;100.00;58004.16;5026946;28;20291;-60
2023/03/29 01:29:27;;;;;;;397.33;109.47;;;;;;;-142.25;100.00;58004.16;5027734;28;20288;-61
2023/03/29 01:32:09;;;;;;;398.43;110.07;;;;;;;-142.25;100.00;58004.16;5027283;28;20374;-59
2023/03/29 01:34:41;;;;;;;397.47;109.90;;;;;;;-142.25;100.00;58004.16;5027658;28;20719;-59
2023/03/29 01:37:42;;;;;;;407.50;118.20;;;;;;;-142.25;100.00;58004.16;5027312;28;20292;-58
2023/03/29 01:40:08;;;;;;;400.93;116.70;;;;;;;-142.25;100.00;58004.16;5038820;28;20296;-58
2023/03/29 01:42:58;;;;;;;397.53;114.27;;;;;;;-142.25;100.00;58004.16;5022523;28;20392;-60
2023/03/29 01:45:37;;;;;;;397.43;111.23;;;;;;;-142.25;100.00;58004.16;5026483;28;20280;-61
2023/03/29 01:48:28;;;;;;;399.00;111.73;;;;;;;-142.25;100.00;58004.16;5019880;28;20280;-60
2023/03/29 01:51:24;;;;;;;394.27;108.13;;;;;;;-142.25;100.00;58004.16;5027819;28;20287;-58
2023/03/29 01:54:02;;;;;;;;;;;;;;;-142.25;100.00;58004.16;5027535;28;20291;-58
2023/03/29 01:56:31;;;;;;;393.27;108.30;;;;;;;-142.25;100.00;58004.16;5027390;28;19920;-58
2023/03/29 01:59:02;;;;;;;394.83;108.17;;;;;;;-142.25;100.00;58004.16;5027179;28;20326;-58
2023/03/29 02:01:37;;;;;;;397.53;110.37;;;;;;;-142.25;100.00;58004.16;5030243;28;20327;-60
2023/03/29 02:04:05;;;;;;;398.20;110.43;;;;;;;-142.25;100.00;58004.16;5031214;28;20885;-60
2023/03/29 02:06:34;;;;;;;399.97;110.87;;;;;;;-142.25;100.00;58004.16;5030780;28;20319;-60
2023/03/29 02:09:01;;;;;;;397.57;111.70;;;;;;;-142.25;100.00;58004.16;5029711;28;20353;-59
2023/03/29 02:11:28;;;;;;;396.03;109.57;;;;;;;-142.25;100.00;58004.16;5028724;28;20320;-59
2023/03/29 02:13:55;;;;;;;391.70;107.60;;;;;;;-142.25;100.00;58004.16;5031574;28;20399;-62
2023/03/29 02:16:21;;;;;;;388.30;105.00;;;;;;;-142.25;100.00;58004.16;5031741;28;20303;-60
2023/03/29 02:18:51;;;;;;;397.73;109.30;;;;;;;-142.25;100.00;58004.16;5031643;28;20291;-58
2023/03/29 02:21:29;;;;;;;384.40;103.67;;;;;;;-142.25;100.00;58004.16;5033229;28;20371;-60
2023/03/29 02:24:00;;;;;;;384.33;105.17;;;;;;;-142.25;100.00;58004.16;5032604;28;20370;-59
2023/03/29 02:26:26;;;;;;;398.20;110.07;;;;;;;-142.25;100.00;58004.16;5030960;28;20411;-56
2023/03/29 02:28:55;;;;;;;386.30;107.00;;;;;;;-142.25;100.00;58004.16;5038071;28;20403;-59
2023/03/29 02:31:34;;;;;;;389.40;108.20;;;;;;;-142.25;100.00;58004.16;5029129;28;20460;-59
2023/03/29 02:34:07;;;;;;;389.57;109.50;;;;;;;-142.25;100.00;58004.16;5030650;28;20307;-59
2023/03/29 02:36:45;;;;;;;393.43;112.50;;;;;;;-142.25;100.00;58004.16;5030717;28;20292;-56
2023/03/29 02:39:14;;;;;;;391.77;108.20;;;;;;;-142.25;100.00;58004.16;5028057;28;20288;-57
2023/03/29 02:41:42;;;;;;;394.40;109.40;;;;;;;-142.25;100.00;58004.16;5030679;28;20667;-59
2023/03/29 02:44:13;;;;;;;398.47;113.30;;;;;;;-142.25;100.00;58004.16;5040347;28;20443;-57
2023/03/29 02:46:41;;;;;;;390.33;107.80;;;;;;;-142.25;100.00;58004.16;5028639;28;20783;-59
2023/03/29 02:49:09;;;;;;;397.23;113.07;;;;;;;-142.25;100.00;58004.16;5032805;28;20326;-58
2023/03/29 02:51:36;;;;;;;395.27;109.17;;;;;;;-142.25;100.00;58004.16;5039816;28;20307;-59
2023/03/29 02:54:11;;;;;;;392.17;107.30;;;;;;;-142.25;100.00;58004.16;5030099;28;20284;-57
2023/03/29 02:56:49;;;;;;;390.50;108.07;;;;;;;-142.25;100.00;58004.16;5030520;28;20663;-59
2023/03/29 02:59:21;;;;;;;392.67;109.97;;;;;;;-142.25;100.00;58004.16;5030856;28;20052;-59
2023/03/29 03:01:47;;;;;;;387.57;105.47;;;;;;;-142.25;100.00;58004.16;5033959;28;20362;-59
2023/03/29 03:04:13;;;;;;;390.67;110.20;;;;;;;-142.25;100.00;58004.16;5029011;28;20343;-57
2023/03/29 03:06:40;;;;;;;391.27;112.37;;;;;;;-142.25;100.00;58004.16;5031143;28;20600;-59
2023/03/29 03:09:08;;;;;;;389.33;108.40;;;;;;;-142.25;100.00;58004.16;5038398;28;20304;-56
2023/03/29 03:11:35;;;;;;;392.93;112.20;;;;;;;-142.25;100.00;58004.16;5043647;28;20374;-58
2023/03/29 03:14:01;;;;;;;391.00;110.70;;;;;;;-142.25;100.00;58004.16;5026345;28;20811;-57
2023/03/29 03:16:27;;;;;;;390.43;108.47;;;;;;;-142.25;100.00;58004.16;5028249;28;20091;-60
2023/03/29 03:18:54;;;;;;;393.27;112.90;;;;;;;-142.25;100.00;58004.16;5032242;28;20275;-60
2023/03/29 03:21:23;;;;;;;398.63;113.13;;;;;;;-142.25;100.00;58004.16;5030299;28;20045;-60
2023/03/29 03:23:50;;;;;;;399.20;112.63;;;;;;;-142.25;100.00;58004.16;5031023;28;20307;-60
2023/03/29 03:26:17;;;;;;;401.30;117.50;;;;;;;-142.25;100.00;58004.16;5029211;28;20067;-61
2023/03/29 03:28:44;;;;;;;406.30;120.83;;;;;;;-142.25;100.00;58004.16;5026235;28;20890;-60
2023/03/29 03:31:20;;;;;;;398.33;113.50;;;;;;;-142.25;100.00;58004.16;5030118;28;20445;-63
2023/03/29 03:34:10;;;;;;;397.00;112.80;;;;;;;-142.25;100.00;58004.16;5031107;28;20303;-61
2023/03/29 03:36:50;;;;;;;399.67;112.30;;;;;;;-142.25;100.00;58004.16;5041220;28;20650;-60
2023/03/29 03:39:16;;;;;;;402.63;116.50;;;;;;;-142.25;100.00;58004.16;5028998;28;20284;-60
2023/03/29 03:41:42;;;;;;;403.53;116.80;;;;;;;-142.25;100.00;58004.16;5026663;28;20558;-60
2023/03/29 03:44:08;;;;;;;402.27;112.77;;;;;;;-142.25;100.00;58004.16;5028875;28;20833;-62
2023/03/29 03:46:34;;;;;;;403.63;114.27;;;;;;;-142.25;100.00;58004.16;5037325;28;20091;-60
2023/03/29 03:49:03;;;;;;;404.43;114.40;;;;;;;-142.25;100.00;58004.16;5029853;28;20279;-60
2023/03/29 03:51:32;;;;;;;403.43;113.93;;;;;;;-142.25;100.00;58004.16;5034489;28;20398;-60
2023/03/29 03:53:58;;;;;;;402.13;112.37;;;;;;;-142.25;100.00;58004.16;5018970;28;20348;-59
2023/03/29 03:56:33;;;;;;;402.95;113.28;;;;;;;-142.25;100.00;58004.16;5028336;28;20057;-59
2023/03/29 03:59:31;;;;;;;399.07;111.70;;;;;;;-142.25;100.00;58004.16;5007070;28;20053;-62
2023/03/29 04:02:05;;;;;;;400.63;112.27;;;;;;;-142.25;100.00;58004.16;5017387;28;20300;-65
2023/03/29 04:04:31;;;;;;;403.50;114.70;;;;;;;-142.25;100.00;58004.16;5025079;28;20049;-62
2023/03/29 04:07:24;;;;;;;399.33;112.37;;;;;;;-142.25;100.00;58004.16;5026577;28;20300;-61
2023/03/29 04:10:09;;;;;;;400.25;115.07;;;;;;;-142.25;100.00;58004.16;5025403;28;20303;-61
2023/03/29 04:12:38;;;;;;;398.70;112.10;;;;;;;-142.25;100.00;58004.16;5025966;28;20061;-62
2023/03/29 04:15:06;;;;;;;400.73;111.77;;;;;;;-142.25;100.00;58004.16;5038337;28;20294;-62
2023/03/29 04:17:32;;;;;;;399.20;114.03;;;;;;;-142.25;100.00;58004.16;5027617;28;20292;-62
2023/03/29 04:20:09;;;;;;;404.83;117.20;;;;;;;-142.25;100.00;58004.16;5040786;28;20302;-62
2023/03/29 04:22:34;;;;;;;401.10;112.57;;;;;;;-142.25;100.00;58004.16;5014142;28;20322;-61
2023/03/29 04:25:00;;;;;;;398.40;111.73;;;;;;;-142.25;100.00;58004.16;5028630;28;20663;-60
2023/03/29 04:27:45;;;;;;;398.13;111.47;;;;;;;-142.25;100.00;58004.16;5028507;28;20323;-60
2023/03/29 04:30:28;;;;;;;399.50;111.63;;;;;;;-142.25;100.00;58004.16;5031200;28;20371;-62
2023/03/29 04:33:10;;;;;;;398.93;113.60;;;;;;;-142.25;100.00;58004.16;5043292;28;20331;-62
2023/03/29 04:35:39;;;;;;;401.10;113.83;;;;;;;-142.25;100.00;58004.16;5034445;28;20396;-60
2023/03/29 04:38:10;;;;;;;405.27;113.23;;;;;;;-142.25;100.00;58004.16;5029264;28;20778;-61
2023/03/29 04:40:37;;;;;;;400.07;112.70;;;;;;;-142.25;100.00;58004.16;5036172;28;20319;-61
2023/03/29 04:43:22;;;;;;;397.83;109.37;;;;;;;-142.25;100.00;58004.16;5045421;28;20403;-61
2023/03/29 04:45:55;;;;;;;401.17;113.90;;;;;;;-142.25;100.00;58004.16;5035291;28;20860;-61
2023/03/29 04:48:47;;;;;;;398.30;111.47;;;;;;;-142.25;100.00;58004.16;4997435;28;20046;-61
2023/03/29 04:51:13;;;;;;;397.40;111.93;;;;;;;-142.25;100.00;58004.16;4979654;28;20918;-59
2023/03/29 04:53:43;;;;;;;399.10;111.87;;;;;;;-142.25;100.00;58004.16;4980312;28;20293;-60
2023/03/29 04:56:10;;;;;;;400.97;116.20;;;;;;;-142.25;100.00;58004.16;4976926;28;20375;-58
2023/03/29 04:59:14;;;;;;;400.40;113.60;;;;;;;-142.25;100.00;58004.16;4955804;28;20290;-61
2023/03/29 05:01:40;;;;;;;400.83;113.50;;;;;;;-142.25;100.00;58004.16;4938583;28;20413;-59
2023/03/29 05:04:06;;;;;;;402.57;114.30;;;;;;;-142.25;100.00;58004.16;4954454;28;20337;-60
2023/03/29 05:06:37;;;;;;;403.93;113.70;;;;;;;-142.25;100.00;58004.16;4951419;28;20058;-59
2023/03/29 05:09:07;;;;;;;402.33;115.10;;;;;;;-142.25;100.00;58004.16;4926408;28;20286;-64
2023/03/29 05:11:47;;;;;;;404.73;118.03;;;;;;;-142.25;100.00;58004.16;4940106;28;20340;-58
2023/03/29 05:14:13;;;;;;;408.10;121.67;;;;;;;-142.25;100.00;58004.16;4952971;28;20306;-63
2023/03/29 05:16:41;;;;;;;408.97;119.47;;;;;;;-142.25;100.00;58004.16;4937053;28;20334;-60
2023/03/29 05:19:11;;;;;;;409.50;118.07;;;;;;;-142.25;100.00;58004.16;4952339;28;20050;-60
2023/03/29 05:21:41;;;;;;;408.43;120.20;;;;;;;-142.25;100.00;58004.16;4938804;28;20451;-60
2023/03/29 05:24:11;;;;;;;406.80;117.37;;;;;;;-142.25;100.00;58004.16;4941564;28;20286;-62
2023/03/29 05:26:55;;;;;;;411.92;119.53;;;;;;;-142.25;100.00;58004.16;4964524;28;20320;-59
2023/03/29 05:29:22;;;;;;;410.43;121.13;;;;;;;-142.25;100.00;58004.16;4961435;28;20504;-60
2023/03/29 05:31:54;;;;;;;410.87;120.47;;;;;;;-142.25;100.00;58004.16;5027180;28;20053;-60
2023/03/29 05:34:19;;;;;;;412.03;124.53;;;;;;;-142.25;100.00;58004.16;5025980;28;20107;-60
2023/03/29 05:36:50;;;;;;;411.37;122.10;;;;;;;-142.25;100.00;58004.16;5029214;28;20536;-61
2023/03/29 05:39:17;;;;;;;409.87;121.27;;;;;;;-142.25;100.00;58004.16;5036051;28;20049;-59
2023/03/29 05:41:43;;;;;;;420.70;129.17;;;;;;;-142.25;100.00;58004.16;5036559;28;20053;-58
2023/03/29 05:44:27;;;;;;;415.57;123.37;;;;;;;-142.25;100.00;58004.16;5029561;28;20045;-59
2023/03/29 05:47:00;;;;;;;418.37;127.23;;;;;;;-142.25;100.00;58004.16;5032860;28;20053;-59
2023/03/29 05:49:26;;;;;;;422.87;130.57;;;;;;;-142.25;100.00;58004.16;5028420;28;20045;-64
2023/03/29 05:52:18;;;;;;;422.47;132.50;;;;;;;-142.25;100.00;58004.16;5026620;28;20049;-58
2023/03/29 05:54:44;;;;;;;419.00;128.77;;;;;;;-142.25;100.00;58004.16;5025068;28;20107;-60
2023/03/29 05:57:11;;;;;;;416.83;124.80;;;;;;;-142.25;100.00;58004.16;5037628;28;20075;-59
2023/03/29 05:59:37;;;;;;;417.47;127.27;;;;;;;-142.25;100.00;58004.16;5029851;28;20363;-59
2023/03/29 06:02:03;;;;;;;419.83;128.97;;;;;;;-142.25;100.00;58004.16;5038863;28;20061;-61
2023/03/29 06:04:32;;;;;;;422.30;128.83;;;;;;;-142.25;100.00;58004.16;5042986;28;20041;-59
2023/03/29 06:07:16;;;;;;;420.10;130.20;;;;;;;-142.25;100.00;58004.16;5029823;28;20061;-60
2023/03/29 06:09:47;;;;;;;421.70;132.73;;;;;;;-142.25;100.00;58004.16;5029884;28;20083;-61
2023/03/29 06:12:13;;;;;;;418.27;128.13;;;;;;;-142.25;100.00;58004.16;5032293;28;20598;-60
2023/03/29 06:14:47;;;;;;;424.87;132.83;;;;;;;-142.25;100.00;58004.16;5032515;28;20041;-61
2023/03/29 06:17:29;;;;;;;427.63;137.50;;;;;;;-142.25;100.00;58004.16;5033142;28;20099;-60
2023/03/29 06:19:56;;;;;;;422.43;133.90;;;;;;;-142.25;100.00;58004.16;5029442;28;20107;-58
2023/03/29 06:22:24;;;;;;;425.60;136.20;;;;;;;-142.25;100.00;58004.16;5035295;28;20195;-61
2023/03/29 06:24:50;;;;;;;422.13;134.53;;;;;;;-142.25;100.00;58004.16;5029400;28;20144;-61
2023/03/29 06:27:22;;;;;;;426.27;139.93;;;;;;;-142.25;100.00;58004.16;5035110;28;20041;-61
2023/03/29 06:29:49;;;;;;;430.07;142.90;;;;;;;-142.25;100.00;58004.16;5028372;28;20287;-60
2023/03/29 06:32:14;;;;;;;428.77;143.47;;;;;;;-142.25;100.00;58004.16;5026268;28;20100;-60
2023/03/29 06:34:49;;;;;;;;;;;;;;;-142.25;100.00;58004.16;5029509;28;20076;-58
2023/03/29 06:37:34;;;;;;;431.00;143.47;;;;;;;-142.25;100.00;58004.16;5058573;28;19921;-59
2023/03/29 06:40:23;;;;;;;427.07;139.67;;;;;;;-142.25;100.00;58004.16;4939207;28;20054;-59
2023/03/29 06:42:56;;;;;;;430.27;147.27;;;;;;;-142.25;100.00;58004.16;4939662;28;20514;-59
2023/03/29 06:45:45;;;;;;;429.70;145.13;;;;;;;-142.25;100.00;58004.16;4954459;28;20107;-59
2023/03/29 06:48:29;;;;;;;430.77;147.43;;;;;;;-142.25;100.00;58004.16;4954639;28;20051;-58
2023/03/29 06:50:55;;;;;;;432.17;150.83;;;;;;;-142.25;100.00;58004.16;4955243;28;20055;-58
2023/03/29 06:53:25;;;;;;;436.13;158.10;;;;;;;-142.25;100.00;58004.16;4958237;28;20054;-60
2023/03/29 06:55:56;;;;;;;433.83;155.37;;;;;;;-142.25;100.00;58004.16;4954031;28;20134;-60
2023/03/29 06:58:45;;;;;;;432.20;154.77;;;;;;;-142.25;100.00;58004.16;4940863;28;20550;-59
2023/03/29 07:01:33;;;;;;;434.00;162.97;;;;;;;-142.25;100.00;58004.16;4948749;28;20074;-60
2023/03/29 07:04:24;;;;;;;435.83;158.57;;;;;;;-142.25;100.00;58004.16;4903842;29;20241;-60
2023/03/29 07:07:18;;;;;;;434.37;158.37;;;;;;;-142.25;100.00;58004.16;4903176;29;20595;-60
2023/03/29 07:09:52;;;;;;;434.03;155.03;;;;;;;-142.25;100.00;58004.16;4887301;29;20178;-60
2023/03/29 07:12:37;;;;;;;436.53;162.67;;;;;;;-142.25;100.00;58004.16;4900549;29;20509;-61
2023/03/29 07:15:03;;;;;;;436.40;161.70;;;;;;;-142.25;100.00;58004.16;4900811;29;20143;-59
2023/03/29 07:17:48;;;;;;;436.20;164.30;;;;;;;-142.25;100.00;58004.16;4943539;28;20282;-60
2023/03/29 07:20:15;;;;;;;439.30;166.67;;;;;;;-142.25;100.00;58004.16;4959560;28;20254;-60
2023/03/29 07:22:47;;;;;;;438.77;167.30;;;;;;;-142.25;100.00;58004.16;4958916;28;20077;-60
2023/03/29 07:25:16;;;;;;;436.50;163.43;;;;;;;-142.25;100.00;58004.16;4977138;28;20470;-60
2023/03/29 07:27:42;;;;;;;438.20;170.37;;;;;;;-142.25;100.00;58004.16;4976089;28;20136;-60
2023/03/29 07:30:09;;;;;;;435.83;164.40;;;;;;;-142.25;100.00;58004.16;4963330;28;20046;-59
2023/03/29 07:32:37;;;;;;;436.67;163.67;;;;;;;-142.25;100.00;58004.16;4961586;28;20046;-58
2023/03/29 07:35:19;;;;;;;436.70;161.43;;;;;;;-142.25;100.00;58004.16;4961169;28;20149;-61
2023/03/29 07:37:46;;;;;;;442.57;176.23;;;;;;;-142.25;100.00;58004.16;4957729;28;20266;-61
2023/03/29 07:40:17;;;;;;;439.30;169.50;;;;;;;-142.25;100.00;58004.16;4960135;28;20186;-61
2023/03/29 07:42:55;;;;;;;445.40;178.13;;;;;;;-142.25;100.00;58004.16;5027701;28;20396;-60
2023/03/29 07:45:27;;;;;;;442.67;178.20;;;;;;;-142.25;100.00;58004.16;5036497;28;20037;-61
2023/03/29 07:48:00;;;;;;;447.23;182.73;;;;;;;-142.25;100.00;58004.16;5030756;28;20163;-61
2023/03/29 07:50:32;;;;;;;447.17;185.23;;;;;;;-142.25;100.00;58004.16;5035261;28;20663;-61
2023/03/29 07:53:00;;;;;;;450.97;197.83;;;;;;;-142.25;100.00;58004.16;5033994;28;20584;-62
2023/03/29 07:55:26;;;;;;;450.87;192.30;;;;;;;-142.25;100.00;58004.16;5027144;28;20034;-60
2023/03/29 07:57:58;;;;;;;452.97;201.97;;;;;;;-142.25;100.00;58004.16;5034400;28;20045;-60
2023/03/29 08:00:24;;;;;;;448.37;200.00;;;;;;;-142.25;100.00;58004.16;5033615;28;20142;-60
2023/03/29 08:03:14;;;;;;;;;;;;;;;-142.25;100.00;58004.16;5026001;28;20053;-60
2023/03/29 08:05:40;;;;;;;;;;;;;;;-142.25;100.00;58004.16;5036934;28;20020;-59
2023/03/29 08:08:09;;;;;;;;;;;;;;;-142.25;100.00;58004.16;5060032;28;19925;-57
2023/03/29 08:10:54;;;;;;;;;;;;;;;-142.25;100.00;58004.16;5032596;28;19928;-60
2023/03/29 08:13:38;;;;;;;;;;;;;;;-142.25;100.00;58004.16;5025762;28;19990;-59
2023/03/29 08:16:25;;;;;;;;;;;;;;;-142.25;100.00;58004.16;5023285;28;20124;-59
2023/03/29 08:18:58;;;;;;;;;;;;;;;-142.25;100.00;58004.16;5030322;28;19929;-60
2023/03/29 08:21:33;;;;;;;;;;;;;;;-142.25;100.00;58004.16;5060063;28;20272;-59
2023/03/29 08:23:58;;;;;;;;;;;;;;;-142.25;100.00;58004.16;5058069;28;19931;-59
2023/03/29 08:26:32;;;;;;;;;;;;;;;-142.25;100.00;58004.16;5026328;28;19925;-60
2023/03/29 08:28:59;;;;;;;;;;;;;;;-142.25;100.00;58004.16;5034589;28;19921;-59
2023/03/29 08:31:26;;;;;;;;;;;;;;;-142.25;100.00;58004.16;5026784;28;20426;-59
2023/03/29 08:33:52;;;;;;;;;;;;;;;-142.25;100.00;58004.16;5059490;28;20004;-58
2023/03/29 08:36:44;;;;;;;;;;;;;;;-142.25;100.00;58004.16;4967330;28;19926;-60
2023/03/29 08:39:18;;;;;;;;;;;;;;;-142.25;100.00;58004.16;4958336;28;19968;-59
2023/03/29 08:41:58;;;;;;;;;;;;;;;-142.25;100.00;58004.16;4950741;28;19976;-59
2023/03/29 08:44:26;;;;;;;;;;;;;;;-142.25;100.00;58004.16;4957174;28;20425;-60
2023/03/29 08:47:22;;;;;;;;;;;;;;;-142.25;100.00;58004.16;4952458;28;20049;-59
2023/03/29 08:49:50;;;;;;;;;;;;;;;-142.25;100.00;58004.16;4949039;28;19993;-60
2023/03/29 08:52:27;;;;;;;;;;;;;;;-142.25;100.00;58004.16;4944772;28;19924;-59
2023/03/29 08:54:54;;;;;;;;;;;;;;;-142.25;100.00;58004.16;4960269;28;20052;-58
2023/03/29 08:57:34;;;;;;;;;;;;;;;-142.25;100.00;58004.16;4971756;28;19933;-58
2023/03/29 09:00:05;;;;;;;;;;;;;;;-142.25;100.00;58004.16;4937882;28;19928;-59
2023/03/29 09:02:36;;;;;;;;;;;;;;;-142.25;100.00;58004.16;4947048;28;20354;-59
2023/03/29 09:05:16;;;;;;;;;;;;;;;-142.25;100.00;58004.16;4950076;28;20024;-59
2023/03/29 09:08:02;;;;;;;;;;;;;;;-142.25;100.00;58004.16;4967649;28;19917;-64
2023/03/29 09:10:34;;;;;;;;;;;;;;;-142.25;100.00;58004.16;4954931;28;20028;-58
2023/03/29 09:13:10;;;;;;;;;;;;;;;-142.25;100.00;58004.16;4964815;28;19939;-60
2023/03/29 09:15:56;;;;;;;;;;;;;;;-142.25;100.00;58004.16;5027844;28;20021;-61
2023/03/29 09:18:31;;;;;;;;;;;;;;;-142.25;100.00;58004.16;5038207;28;20006;-60
2023/03/29 09:21:02;;;;;;;;;;;;;;;-142.25;100.00;58004.16;5060162;28;20110;-60
2023/03/29 09:23:43;;;;;;;;;;;;;;;-142.25;100.00;58004.16;5028047;28;20334;-60
2023/03/29 09:26:27;;;;;;;;;;;;;;;-142.25;100.00;58004.16;5019007;28;19925;-60
2023/03/29 09:29:24;;;;;;;;;;;;;;;-142.25;100.00;58004.16;5026774;28;20207;-60
2023/03/29 09:31:52;;;;;;;;;;;;;;;-142.25;100.00;58004.16;5032841;28;20245;-60
2023/03/29 09:34:21;;;;;;;;;;;;;;;-142.25;100.00;58004.16;5025505;28;20401;-60
2023/03/29 09:36:58;;;;;;;;;;;;;;;-142.25;100.00;58004.16;5027256;28;20611;-60
2023/03/29 09:39:26;;;;;;;;;;;;;;;-142.25;100.00;58004.16;5029211;28;19928;-60
2023/03/29 09:42:03;;;;;;;;;;;;;;;-142.25;100.00;58004.16;5026815;28;19929;-60
2023/03/29 09:44:32;;;;;;;;;;;;;;;-142.25;100.00;58004.16;5034746;28;19925;-60
2023/03/29 09:47:17;;;;;;;;;;;;;;;-142.25;100.00;58004.16;5026286;28;19974;-61
2023/03/29 09:49:46;;;;;;;;;;;;;;;-142.25;100.00;58004.16;5026343;28;19921;-59
2023/03/29 09:52:15;;;;;;;;;;;;;;;-142.25;100.00;58004.16;5038016;28;19928;-60
2023/03/29 09:54:46;;;;;;;;;;;;;;;-142.25;100.00;58004.16;5032751;28;19921;-62
2023/03/29 09:57:30;;;;;;;;;;;;;;;-142.25;100.00;58004.16;5025942;28;19994;-59
2023/03/29 09:59:56;;;;;;;;;;;;;;;-142.25;100.00;58004.16;5014796;28;20008;-62
2023/03/29 10:02:22;;;;;;;;;;;;;;;-142.25;100.00;58004.16;5026266;28;19925;-62
2023/03/29 10:04:54;;;;;;;;;;;;;;;-142.25;100.00;58004.16;5033215;28;20329;-61
2023/03/29 10:07:19;;;;;;;;;;;;;;;-142.25;100.00;58004.16;5028543;28;20078;-61
2023/03/29 10:09:54;;;;;;;;;;;;;;;-142.25;100.00;58004.16;5035732;28;19962;-61
2023/03/29 10:12:21;;;;;;;;;;;;;;;-142.25;100.00;58004.16;5029237;28;19990;-61
2023/03/29 10:14:48;;;;;;;;;;;;;;;-142.25;100.00;58004.16;5027444;28;19932;-61
2023/03/29 10:17:36;;;;;;;;;;;;;;;-142.25;100.00;58004.16;5025864;28;20103;-60
2023/03/29 10:20:04;;;;;;;;;;;;;;;-142.25;100.00;58004.16;5024816;28;19967;-61
2023/03/29 10:22:36;;;;;;;;;;;;;;;-142.25;100.00;58004.16;5029603;28;20816;-61
2023/03/29 10:25:02;;;;;;;;;;;;;;;-142.25;100.00;58004.16;5027120;28;19936;-61
2023/03/29 10:27:29;;;;;;;;;;;;;;;-142.25;100.00;58004.16;5027387;28;19957;-61
2023/03/29 10:29:57;;;;;;;;;;;;;;;-142.25;100.00;58004.16;5030757;28;19925;-62
2023/03/29 10:32:30;;;;;;;;;;;;;;;-142.25;100.00;58004.16;5031340;28;19974;-60
2023/03/29 10:34:58;;;;;;;;;;;;;;;-142.25;100.00;58004.16;5029906;28;19960;-61
2023/03/29 10:37:23;;;;;;;;;;;;;;;-142.25;100.00;58004.16;5028037;28;20399;-61
2023/03/29 10:39:50;;;;;;;;;;;;;;;-142.25;100.00;58004.16;5028212;28;19933;-61
2023/03/29 10:42:18;;;;;;;;;;;;;;;-142.25;100.00;58004.16;5030096;28;20062;-61
2023/03/29 10:44:51;;;;;;;;;;;;;;;-142.25;100.00;58004.16;5030482;28;19933;-61
2023/03/29 10:47:19;;;;;;;;;;;;;;;-142.25;100.00;58004.16;5029368;28;20300;-61
2023/03/29 10:49:47;;;;;;;;;;;;;;;-142.25;100.00;58004.16;5029291;28;19925;-61
2023/03/29 10:52:13;;;;;;;;;;;;;;;-142.25;100.00;58004.16;5029484;28;20343;-60
2023/03/29 10:54:39;;;;;;;;;;;;;;;-142.25;100.00;58004.16;5030635;28;20039;-61
2023/03/29 10:57:09;;;;;;;;;;;;;;;-142.25;100.00;58004.16;5029501;28;20367;-60
2023/03/29 10:59:53;;;;;;;;;;;;;;;-142.25;100.00;58004.16;5030654;28;19991;-60
2023/03/29 11:02:19;;;;;;;;;;;;;;;-142.25;100.00;58004.16;5028737;28;19920;-61
2023/03/29 11:04:55;;;;;;;;;;;;;;;-142.25;100.00;58004.16;5031018;28;20352;-59
2023/03/29 11:07:56;;;;;;;;;;;;;;;-142.25;100.00;58004.16;5026231;28;19991;-61
2023/03/29 11:10:27;;;;;;;;;;;;;;;-142.25;100.00;58004.16;4978275;28;19921;-61
2023/03/29 11:13:11;;;;;;;;;;;;;;;-142.25;100.00;58004.16;4979330;28;20202;-61
2023/03/29 11:15:45;;;;;;;;;;;;;;;-142.25;100.00;58004.16;4977571;28;19952;-62
2023/03/29 11:18:23;;;;;;;;;;;;;;;-142.25;100.00;58004.16;4980729;28;19969;-61
2023/03/29 11:21:07;;;;;;;;;;;;;;;-142.25;100.00;58004.16;4980852;28;19921;-61
2023/03/29 11:23:42;;;;;;;;;;;;;;;-142.25;100.00;58004.16;4979980;28;20547;-60
2023/03/29 11:26:33;;;;;;;;;;;;;;;-142.25;100.00;58004.16;4978976;28;19921;-61
2023/03/29 11:28:59;;;;;;;;;;;;;;;-142.25;100.00;58004.16;4980666;28;19944;-61
2023/03/29 11:31:30;;;;;;;;;;;;;;;-142.25;100.00;58004.16;4980035;28;19921;-60
2023/03/29 11:34:14;;;;;;;;;;;;;;;-142.25;100.00;58004.16;4980141;28;19929;-60